sensor_id;sensor_type;location;lat;lon;timestamp;P1;durP1;ratioP1;P2;durP2;ratioP2
20814;SDS011;10568;48.176;16.316;2024-03-17T00:00:20;0.30;;;0.30;;
20814;SDS011;10568;48.176;16.316;2024-03-17T00:02:47;0.60;;;0.50;;
20814;SDS011;10568;48.176;16.316;2024-03-17T00:05:13;1.90;;;0.50;;
20814;SDS011;10568;48.176;16.316;2024-03-17T00:07:40;0.77;;;0.70;;
20814;SDS011;10568;48.176;16.316;2024-03-17T00:10:06;0.70;;;0.60;;
20814;SDS011;10568;48.176;16.316;2024-03-17T00:12:33;1.10;;;1.00;;
20814;SDS011;10568;48.176;16.316;2024-03-17T00:15:00;0.70;;;0.63;;
20814;SDS011;10568;48.176;16.316;2024-03-17T00:17:26;1.67;;;0.87;;
20814;SDS011;10568;48.176;16.316;2024-03-17T00:19:52;1.20;;;1.00;;
20814;SDS011;10568;48.176;16.316;2024-03-17T00:25:08;1.73;;;1.00;;
20814;SDS011;10568;48.176;16.316;2024-03-17T00:27:35;1.33;;;1.10;;
20814;SDS011;10568;48.176;16.316;2024-03-17T00:30:05;1.70;;;1.13;;
20814;SDS011;10568;48.176;16.316;2024-03-17T00:32:38;3.03;;;1.30;;
20814;SDS011;10568;48.176;16.316;2024-03-17T00:35:09;1.50;;;1.40;;
20814;SDS011;10568;48.176;16.316;2024-03-17T00:37:39;1.83;;;1.30;;
20814;SDS011;10568;48.176;16.316;2024-03-17T00:40:06;3.13;;;1.30;;
20814;SDS011;10568;48.176;16.316;2024-03-17T00:42:32;1.13;;;1.03;;
20814;SDS011;10568;48.176;16.316;2024-03-17T00:44:58;1.00;;;0.90;;
20814;SDS011;10568;48.176;16.316;2024-03-17T00:47:28;1.83;;;1.17;;
20814;SDS011;10568;48.176;16.316;2024-03-17T00:49:55;1.13;;;1.00;;
20814;SDS011;10568;48.176;16.316;2024-03-17T00:52:21;1.73;;;0.97;;
20814;SDS011;10568;48.176;16.316;2024-03-17T00:54:47;1.57;;;1.00;;
20814;SDS011;10568;48.176;16.316;2024-03-17T00:57:14;1.37;;;1.10;;
20814;SDS011;10568;48.176;16.316;2024-03-17T00:59:41;1.37;;;1.10;;
20814;SDS011;10568;48.176;16.316;2024-03-17T01:02:11;0.83;;;0.83;;
20814;SDS011;10568;48.176;16.316;2024-03-17T01:04:42;1.53;;;1.10;;
20814;SDS011;10568;48.176;16.316;2024-03-17T01:07:09;1.30;;;1.00;;
20814;SDS011;10568;48.176;16.316;2024-03-17T01:09:36;2.07;;;1.50;;
20814;SDS011;10568;48.176;16.316;2024-03-17T01:12:03;3.00;;;1.60;;
20814;SDS011;10568;48.176;16.316;2024-03-17T01:14:29;1.53;;;1.30;;
20814;SDS011;10568;48.176;16.316;2024-03-17T01:16:56;1.33;;;1.23;;
20814;SDS011;10568;48.176;16.316;2024-03-17T01:19:23;1.43;;;1.33;;
20814;SDS011;10568;48.176;16.316;2024-03-17T01:21:50;1.53;;;1.33;;
20814;SDS011;10568;48.176;16.316;2024-03-17T01:24:17;1.33;;;1.20;;
20814;SDS011;10568;48.176;16.316;2024-03-17T01:26:43;1.93;;;1.37;;
20814;SDS011;10568;48.176;16.316;2024-03-17T01:29:10;1.70;;;1.57;;
20814;SDS011;10568;48.176;16.316;2024-03-17T01:31:36;2.13;;;1.33;;
20814;SDS011;10568;48.176;16.316;2024-03-17T01:34:02;1.60;;;1.47;;
20814;SDS011;10568;48.176;16.316;2024-03-17T01:36:28;1.70;;;1.50;;
20814;SDS011;10568;48.176;16.316;2024-03-17T01:38:54;1.70;;;1.50;;
20814;SDS011;10568;48.176;16.316;2024-03-17T01:41:21;2.07;;;1.80;;
20814;SDS011;10568;48.176;16.316;2024-03-17T01:43:47;2.40;;;2.00;;
20814;SDS011;10568;48.176;16.316;2024-03-17T01:46:14;3.70;;;2.30;;
20814;SDS011;10568;48.176;16.316;2024-03-17T01:48:42;2.90;;;1.87;;
20814;SDS011;10568;48.176;16.316;2024-03-17T01:51:10;2.13;;;1.93;;
20814;SDS011;10568;48.176;16.316;2024-03-17T01:53:38;2.30;;;2.10;;
20814;SDS011;10568;48.176;16.316;2024-03-17T01:56:05;3.30;;;2.30;;
20814;SDS011;10568;48.176;16.316;2024-03-17T01:58:35;2.17;;;1.97;;
20814;SDS011;10568;48.176;16.316;2024-03-17T02:01:02;3.27;;;2.40;;
20814;SDS011;10568;48.176;16.316;2024-03-17T02:03:32;2.90;;;2.60;;
20814;SDS011;10568;48.176;16.316;2024-03-17T02:05:58;3.17;;;2.30;;
20814;SDS011;10568;48.176;16.316;2024-03-17T02:08:24;2.90;;;2.60;;
20814;SDS011;10568;48.176;16.316;2024-03-17T02:10:54;3.37;;;2.77;;
20814;SDS011;10568;48.176;16.316;2024-03-17T02:13:21;3.43;;;1.80;;
20814;SDS011;10568;48.176;16.316;2024-03-17T02:15:47;2.90;;;2.30;;
20814;SDS011;10568;48.176;16.316;2024-03-17T02:21:04;3.20;;;2.20;;
20814;SDS011;10568;48.176;16.316;2024-03-17T02:23:33;3.37;;;2.40;;
20814;SDS011;10568;48.176;16.316;2024-03-17T02:25:59;4.03;;;2.27;;
20814;SDS011;10568;48.176;16.316;2024-03-17T02:28:25;4.70;;;2.67;;
20814;SDS011;10568;48.176;16.316;2024-03-17T02:30:51;3.43;;;3.00;;
20814;SDS011;10568;48.176;16.316;2024-03-17T02:36:09;4.07;;;3.10;;
20814;SDS011;10568;48.176;16.316;2024-03-17T02:38:38;3.73;;;2.87;;
20814;SDS011;10568;48.176;16.316;2024-03-17T02:41:23;5.37;;;3.33;;
20814;SDS011;10568;48.176;16.316;2024-03-17T02:43:50;4.77;;;3.10;;
20814;SDS011;10568;48.176;16.316;2024-03-17T02:46:16;4.00;;;3.03;;
20814;SDS011;10568;48.176;16.316;2024-03-17T02:48:44;4.77;;;3.20;;
20814;SDS011;10568;48.176;16.316;2024-03-17T02:51:15;6.03;;;3.27;;
20814;SDS011;10568;48.176;16.316;2024-03-17T02:53:42;5.07;;;2.90;;
20814;SDS011;10568;48.176;16.316;2024-03-17T02:56:13;3.43;;;2.80;;
20814;SDS011;10568;48.176;16.316;2024-03-17T02:58:42;4.57;;;3.13;;
20814;SDS011;10568;48.176;16.316;2024-03-17T03:01:08;6.60;;;3.03;;
20814;SDS011;10568;48.176;16.316;2024-03-17T03:03:37;5.10;;;2.87;;
20814;SDS011;10568;48.176;16.316;2024-03-17T03:06:03;4.43;;;3.20;;
20814;SDS011;10568;48.176;16.316;2024-03-17T03:08:37;4.80;;;3.00;;
20814;SDS011;10568;48.176;16.316;2024-03-17T03:11:08;3.63;;;2.67;;
20814;SDS011;10568;48.176;16.316;2024-03-17T03:13:39;5.03;;;2.60;;
20814;SDS011;10568;48.176;16.316;2024-03-17T03:16:06;5.77;;;3.30;;
20814;SDS011;10568;48.176;16.316;2024-03-17T03:18:34;4.27;;;3.30;;
20814;SDS011;10568;48.176;16.316;2024-03-17T03:21:04;4.13;;;2.63;;
20814;SDS011;10568;48.176;16.316;2024-03-17T03:23:31;5.30;;;3.20;;
20814;SDS011;10568;48.176;16.316;2024-03-17T03:26:00;5.03;;;3.07;;
20814;SDS011;10568;48.176;16.316;2024-03-17T03:28:31;4.97;;;3.50;;
20814;SDS011;10568;48.176;16.316;2024-03-17T03:30:59;6.53;;;3.60;;
20814;SDS011;10568;48.176;16.316;2024-03-17T03:33:25;3.90;;;2.80;;
20814;SDS011;10568;48.176;16.316;2024-03-17T03:35:53;5.27;;;3.20;;
20814;SDS011;10568;48.176;16.316;2024-03-17T03:38:21;4.77;;;3.30;;
20814;SDS011;10568;48.176;16.316;2024-03-17T03:40:48;4.03;;;3.03;;
20814;SDS011;10568;48.176;16.316;2024-03-17T03:43:14;5.93;;;3.60;;
20814;SDS011;10568;48.176;16.316;2024-03-17T03:45:41;4.37;;;3.20;;
20814;SDS011;10568;48.176;16.316;2024-03-17T03:48:07;6.10;;;3.40;;
20814;SDS011;10568;48.176;16.316;2024-03-17T03:50:34;5.00;;;3.37;;
20814;SDS011;10568;48.176;16.316;2024-03-17T03:53:01;6.07;;;3.63;;
20814;SDS011;10568;48.176;16.316;2024-03-17T03:55:27;5.00;;;3.20;;
20814;SDS011;10568;48.176;16.316;2024-03-17T03:57:54;4.60;;;3.60;;
20814;SDS011;10568;48.176;16.316;2024-03-17T04:00:20;5.23;;;3.80;;
20814;SDS011;10568;48.176;16.316;2024-03-17T04:02:48;5.53;;;3.60;;
20814;SDS011;10568;48.176;16.316;2024-03-17T04:05:15;5.50;;;3.47;;
20814;SDS011;10568;48.176;16.316;2024-03-17T04:07:41;5.43;;;3.33;;
20814;SDS011;10568;48.176;16.316;2024-03-17T04:14:20;7.53;;;3.77;;
20814;SDS011;10568;48.176;16.316;2024-03-17T04:16:46;6.53;;;3.53;;
20814;SDS011;10568;48.176;16.316;2024-03-17T04:19:12;5.73;;;3.20;;
20814;SDS011;10568;48.176;16.316;2024-03-17T04:21:41;5.57;;;3.37;;
20814;SDS011;10568;48.176;16.316;2024-03-17T04:24:07;5.13;;;3.60;;
20814;SDS011;10568;48.176;16.316;2024-03-17T04:26:33;5.40;;;3.87;;
20814;SDS011;10568;48.176;16.316;2024-03-17T04:28:59;5.80;;;3.80;;
20814;SDS011;10568;48.176;16.316;2024-03-17T04:31:26;7.00;;;3.87;;
20814;SDS011;10568;48.176;16.316;2024-03-17T04:33:54;4.90;;;3.70;;
20814;SDS011;10568;48.176;16.316;2024-03-17T04:36:20;7.03;;;3.50;;
20814;SDS011;10568;48.176;16.316;2024-03-17T04:38:46;6.40;;;3.67;;
20814;SDS011;10568;48.176;16.316;2024-03-17T04:41:14;5.07;;;3.90;;
20814;SDS011;10568;48.176;16.316;2024-03-17T04:43:42;6.10;;;4.53;;
20814;SDS011;10568;48.176;16.316;2024-03-17T04:46:08;6.67;;;3.87;;
20814;SDS011;10568;48.176;16.316;2024-03-17T04:48:37;5.40;;;3.93;;
20814;SDS011;10568;48.176;16.316;2024-03-17T04:51:03;4.90;;;3.73;;
20814;SDS011;10568;48.176;16.316;2024-03-17T04:53:30;5.60;;;4.00;;
20814;SDS011;10568;48.176;16.316;2024-03-17T04:56:03;6.23;;;4.00;;
20814;SDS011;10568;48.176;16.316;2024-03-17T04:58:33;4.83;;;3.93;;
20814;SDS011;10568;48.176;16.316;2024-03-17T05:01:07;7.60;;;3.80;;
20814;SDS011;10568;48.176;16.316;2024-03-17T05:03:33;7.97;;;4.57;;
20814;SDS011;10568;48.176;16.316;2024-03-17T05:06:03;6.43;;;3.70;;
20814;SDS011;10568;48.176;16.316;2024-03-17T05:08:30;7.70;;;3.13;;
20814;SDS011;10568;48.176;16.316;2024-03-17T05:13:30;6.07;;;3.40;;
20814;SDS011;10568;48.176;16.316;2024-03-17T05:15:57;5.60;;;3.67;;
20814;SDS011;10568;48.176;16.316;2024-03-17T05:18:25;4.90;;;3.60;;
20814;SDS011;10568;48.176;16.316;2024-03-17T05:21:04;6.37;;;3.40;;
20814;SDS011;10568;48.176;16.316;2024-03-17T05:23:32;7.30;;;3.40;;
20814;SDS011;10568;48.176;16.316;2024-03-17T05:25:59;3.50;;;2.90;;
20814;SDS011;10568;48.176;16.316;2024-03-17T05:28:26;5.37;;;3.43;;
20814;SDS011;10568;48.176;16.316;2024-03-17T05:30:54;5.63;;;3.27;;
20814;SDS011;10568;48.176;16.316;2024-03-17T05:33:24;4.90;;;3.57;;
20814;SDS011;10568;48.176;16.316;2024-03-17T05:35:55;5.80;;;3.43;;
20814;SDS011;10568;48.176;16.316;2024-03-17T05:38:22;6.30;;;3.10;;
20814;SDS011;10568;48.176;16.316;2024-03-17T05:40:54;7.20;;;3.30;;
20814;SDS011;10568;48.176;16.316;2024-03-17T05:43:30;6.27;;;3.27;;
20814;SDS011;10568;48.176;16.316;2024-03-17T05:46:04;4.67;;;2.43;;
20814;SDS011;10568;48.176;16.316;2024-03-17T05:48:35;4.50;;;3.03;;
20814;SDS011;10568;48.176;16.316;2024-03-17T05:51:04;6.90;;;3.23;;
20814;SDS011;10568;48.176;16.316;2024-03-17T05:53:31;6.90;;;3.17;;
20814;SDS011;10568;48.176;16.316;2024-03-17T05:56:01;3.87;;;2.67;;
20814;SDS011;10568;48.176;16.316;2024-03-17T05:58:28;4.27;;;2.73;;
20814;SDS011;10568;48.176;16.316;2024-03-17T06:00:55;6.40;;;3.20;;
20814;SDS011;10568;48.176;16.316;2024-03-17T06:03:21;6.33;;;2.93;;
20814;SDS011;10568;48.176;16.316;2024-03-17T06:05:47;7.07;;;3.10;;
20814;SDS011;10568;48.176;16.316;2024-03-17T06:08:14;4.70;;;2.90;;
20814;SDS011;10568;48.176;16.316;2024-03-17T06:10:44;7.17;;;3.07;;
20814;SDS011;10568;48.176;16.316;2024-03-17T06:13:12;6.27;;;2.63;;
20814;SDS011;10568;48.176;16.316;2024-03-17T06:15:41;4.87;;;2.87;;
20814;SDS011;10568;48.176;16.316;2024-03-17T06:18:08;5.30;;;2.47;;
20814;SDS011;10568;48.176;16.316;2024-03-17T06:20:41;4.30;;;2.43;;
20814;SDS011;10568;48.176;16.316;2024-03-17T06:23:12;4.43;;;2.43;;
20814;SDS011;10568;48.176;16.316;2024-03-17T06:25:42;2.97;;;2.47;;
20814;SDS011;10568;48.176;16.316;2024-03-17T06:28:09;6.67;;;2.87;;
20814;SDS011;10568;48.176;16.316;2024-03-17T06:30:39;6.20;;;2.70;;
20814;SDS011;10568;48.176;16.316;2024-03-17T06:33:06;8.03;;;2.63;;
20814;SDS011;10568;48.176;16.316;2024-03-17T06:35:35;4.30;;;2.30;;
20814;SDS011;10568;48.176;16.316;2024-03-17T06:38:02;5.10;;;2.30;;
20814;SDS011;10568;48.176;16.316;2024-03-17T06:40:28;4.93;;;2.50;;
20814;SDS011;10568;48.176;16.316;2024-03-17T06:42:56;5.83;;;2.20;;
20814;SDS011;10568;48.176;16.316;2024-03-17T06:45:22;5.23;;;2.43;;
20814;SDS011;10568;48.176;16.316;2024-03-17T06:47:49;3.97;;;2.13;;
20814;SDS011;10568;48.176;16.316;2024-03-17T06:50:15;3.30;;;2.17;;
20814;SDS011;10568;48.176;16.316;2024-03-17T06:52:41;4.83;;;2.20;;
20814;SDS011;10568;48.176;16.316;2024-03-17T06:55:07;7.67;;;2.67;;
20814;SDS011;10568;48.176;16.316;2024-03-17T06:57:34;3.50;;;2.50;;
20814;SDS011;10568;48.176;16.316;2024-03-17T07:00:01;4.73;;;2.20;;
20814;SDS011;10568;48.176;16.316;2024-03-17T07:02:31;4.37;;;2.20;;
20814;SDS011;10568;48.176;16.316;2024-03-17T07:04:59;4.73;;;2.13;;
20814;SDS011;10568;48.176;16.316;2024-03-17T07:07:28;5.23;;;2.20;;
20814;SDS011;10568;48.176;16.316;2024-03-17T07:09:54;3.27;;;2.20;;
20814;SDS011;10568;48.176;16.316;2024-03-17T07:12:20;3.13;;;1.90;;
20814;SDS011;10568;48.176;16.316;2024-03-17T07:14:46;4.10;;;2.30;;
20814;SDS011;10568;48.176;16.316;2024-03-17T07:17:15;4.63;;;1.53;;
20814;SDS011;10568;48.176;16.316;2024-03-17T07:19:42;4.10;;;2.10;;
20814;SDS011;10568;48.176;16.316;2024-03-17T07:22:08;3.83;;;2.10;;
20814;SDS011;10568;48.176;16.316;2024-03-17T07:24:34;3.40;;;2.00;;
20814;SDS011;10568;48.176;16.316;2024-03-17T07:27:00;4.13;;;2.10;;
20814;SDS011;10568;48.176;16.316;2024-03-17T07:29:26;3.57;;;1.93;;
20814;SDS011;10568;48.176;16.316;2024-03-17T07:31:52;3.10;;;1.87;;
20814;SDS011;10568;48.176;16.316;2024-03-17T07:34:18;3.70;;;1.73;;
20814;SDS011;10568;48.176;16.316;2024-03-17T07:36:45;5.67;;;2.10;;
20814;SDS011;10568;48.176;16.316;2024-03-17T07:39:11;5.23;;;2.40;;
20814;SDS011;10568;48.176;16.316;2024-03-17T07:41:38;3.93;;;2.10;;
20814;SDS011;10568;48.176;16.316;2024-03-17T07:44:04;3.00;;;1.90;;
20814;SDS011;10568;48.176;16.316;2024-03-17T07:46:30;4.53;;;1.60;;
20814;SDS011;10568;48.176;16.316;2024-03-17T07:48:56;7.77;;;1.90;;
20814;SDS011;10568;48.176;16.316;2024-03-17T07:51:22;4.53;;;1.83;;
20814;SDS011;10568;48.176;16.316;2024-03-17T07:53:48;6.00;;;2.37;;
20814;SDS011;10568;48.176;16.316;2024-03-17T07:56:15;4.03;;;2.10;;
20814;SDS011;10568;48.176;16.316;2024-03-17T07:58:42;2.77;;;1.80;;
20814;SDS011;10568;48.176;16.316;2024-03-17T08:01:10;4.10;;;1.80;;
20814;SDS011;10568;48.176;16.316;2024-03-17T08:03:38;4.50;;;1.83;;
20814;SDS011;10568;48.176;16.316;2024-03-17T08:06:06;3.77;;;1.90;;
20814;SDS011;10568;48.176;16.316;2024-03-17T08:08:33;5.23;;;2.10;;
20814;SDS011;10568;48.176;16.316;2024-03-17T08:11:00;4.73;;;1.90;;
20814;SDS011;10568;48.176;16.316;2024-03-17T08:13:32;2.83;;;1.97;;
20814;SDS011;10568;48.176;16.316;2024-03-17T08:16:03;2.60;;;1.83;;
20814;SDS011;10568;48.176;16.316;2024-03-17T08:18:36;3.53;;;2.07;;
20814;SDS011;10568;48.176;16.316;2024-03-17T08:21:03;4.13;;;1.80;;
20814;SDS011;10568;48.176;16.316;2024-03-17T08:23:31;3.53;;;2.10;;
20814;SDS011;10568;48.176;16.316;2024-03-17T08:26:01;4.00;;;2.03;;
20814;SDS011;10568;48.176;16.316;2024-03-17T08:28:27;3.13;;;2.13;;
20814;SDS011;10568;48.176;16.316;2024-03-17T08:30:54;3.77;;;1.90;;
20814;SDS011;10568;48.176;16.316;2024-03-17T08:33:21;3.60;;;1.90;;
20814;SDS011;10568;48.176;16.316;2024-03-17T08:35:52;4.17;;;2.00;;
20814;SDS011;10568;48.176;16.316;2024-03-17T08:38:22;3.30;;;2.00;;
20814;SDS011;10568;48.176;16.316;2024-03-17T08:43:46;4.00;;;1.83;;
20814;SDS011;10568;48.176;16.316;2024-03-17T08:46:12;3.70;;;2.20;;
20814;SDS011;10568;48.176;16.316;2024-03-17T08:48:40;3.53;;;2.30;;
20814;SDS011;10568;48.176;16.316;2024-03-17T08:51:09;3.47;;;2.10;;
20814;SDS011;10568;48.176;16.316;2024-03-17T08:53:36;4.17;;;2.40;;
20814;SDS011;10568;48.176;16.316;2024-03-17T08:56:06;3.27;;;2.30;;
20814;SDS011;10568;48.176;16.316;2024-03-17T08:58:32;3.47;;;1.97;;
20814;SDS011;10568;48.176;16.316;2024-03-17T09:00:58;4.50;;;2.00;;
20814;SDS011;10568;48.176;16.316;2024-03-17T09:03:28;3.07;;;2.10;;
20814;SDS011;10568;48.176;16.316;2024-03-17T09:05:54;4.03;;;2.00;;
20814;SDS011;10568;48.176;16.316;2024-03-17T09:08:21;3.80;;;2.10;;
20814;SDS011;10568;48.176;16.316;2024-03-17T09:10:49;5.87;;;1.93;;
20814;SDS011;10568;48.176;16.316;2024-03-17T09:13:19;4.27;;;2.20;;
20814;SDS011;10568;48.176;16.316;2024-03-17T09:18:34;2.90;;;1.83;;
20814;SDS011;10568;48.176;16.316;2024-03-17T09:21:04;2.83;;;2.10;;
20814;SDS011;10568;48.176;16.316;2024-03-17T09:23:33;3.03;;;2.13;;
20814;SDS011;10568;48.176;16.316;2024-03-17T09:26:01;3.60;;;2.23;;
20814;SDS011;10568;48.176;16.316;2024-03-17T09:28:28;2.70;;;2.10;;
20814;SDS011;10568;48.176;16.316;2024-03-17T09:33:56;3.10;;;2.00;;
20814;SDS011;10568;48.176;16.316;2024-03-17T09:36:22;6.03;;;2.33;;
20814;SDS011;10568;48.176;16.316;2024-03-17T09:38:49;4.43;;;2.40;;
20814;SDS011;10568;48.176;16.316;2024-03-17T09:41:22;4.87;;;2.30;;
20814;SDS011;10568;48.176;16.316;2024-03-17T09:43:53;2.60;;;1.67;;
20814;SDS011;10568;48.176;16.316;2024-03-17T09:46:20;3.33;;;1.70;;
20814;SDS011;10568;48.176;16.316;2024-03-17T09:48:48;3.57;;;1.97;;
20814;SDS011;10568;48.176;16.316;2024-03-17T09:51:19;4.93;;;2.20;;
20814;SDS011;10568;48.176;16.316;2024-03-17T09:53:47;4.00;;;1.83;;
20814;SDS011;10568;48.176;16.316;2024-03-17T09:56:15;3.03;;;1.90;;
20814;SDS011;10568;48.176;16.316;2024-03-17T09:58:44;3.13;;;1.97;;
20814;SDS011;10568;48.176;16.316;2024-03-17T10:01:11;2.83;;;1.87;;
20814;SDS011;10568;48.176;16.316;2024-03-17T10:06:15;3.00;;;1.80;;
20814;SDS011;10568;48.176;16.316;2024-03-17T10:08:44;4.70;;;1.80;;
20814;SDS011;10568;48.176;16.316;2024-03-17T10:11:12;5.83;;;1.90;;
20814;SDS011;10568;48.176;16.316;2024-03-17T10:13:41;3.40;;;1.77;;
20814;SDS011;10568;48.176;16.316;2024-03-17T10:16:24;3.17;;;1.57;;
20814;SDS011;10568;48.176;16.316;2024-03-17T10:19:05;4.80;;;1.77;;
20814;SDS011;10568;48.176;16.316;2024-03-17T10:21:39;2.57;;;1.60;;
20814;SDS011;10568;48.176;16.316;2024-03-17T10:24:13;4.37;;;1.60;;
20814;SDS011;10568;48.176;16.316;2024-03-17T10:26:47;5.47;;;2.30;;
20814;SDS011;10568;48.176;16.316;2024-03-17T10:29:26;3.30;;;1.90;;
20814;SDS011;10568;48.176;16.316;2024-03-17T10:31:52;3.00;;;1.50;;
20814;SDS011;10568;48.176;16.316;2024-03-17T10:34:21;2.80;;;1.73;;
20814;SDS011;10568;48.176;16.316;2024-03-17T10:36:52;2.97;;;1.97;;
20814;SDS011;10568;48.176;16.316;2024-03-17T10:39:38;2.47;;;1.73;;
20814;SDS011;10568;48.176;16.316;2024-03-17T10:42:10;3.13;;;1.70;;
20814;SDS011;10568;48.176;16.316;2024-03-17T10:44:38;3.77;;;2.07;;
20814;SDS011;10568;48.176;16.316;2024-03-17T10:47:07;3.13;;;1.60;;
20814;SDS011;10568;48.176;16.316;2024-03-17T10:49:43;3.20;;;1.80;;
20814;SDS011;10568;48.176;16.316;2024-03-17T10:52:17;5.17;;;1.60;;
20814;SDS011;10568;48.176;16.316;2024-03-17T10:54:46;2.60;;;1.60;;
20814;SDS011;10568;48.176;16.316;2024-03-17T11:00:07;1.90;;;1.23;;
20814;SDS011;10568;48.176;16.316;2024-03-17T11:02:34;2.60;;;1.73;;
20814;SDS011;10568;48.176;16.316;2024-03-17T11:05:02;2.53;;;1.60;;
20814;SDS011;10568;48.176;16.316;2024-03-17T11:07:49;2.47;;;1.73;;
20814;SDS011;10568;48.176;16.316;2024-03-17T11:10:24;2.47;;;1.63;;
20814;SDS011;10568;48.176;16.316;2024-03-17T11:12:54;1.70;;;1.40;;
20814;SDS011;10568;48.176;16.316;2024-03-17T11:17:55;2.53;;;1.43;;
20814;SDS011;10568;48.176;16.316;2024-03-17T11:20:42;3.57;;;1.90;;
20814;SDS011;10568;48.176;16.316;2024-03-17T11:23:28;1.60;;;1.33;;
20814;SDS011;10568;48.176;16.316;2024-03-17T11:25:55;2.47;;;1.40;;
20814;SDS011;10568;48.176;16.316;2024-03-17T11:34:07;1.70;;;1.37;;
20814;SDS011;10568;48.176;16.316;2024-03-17T11:36:58;2.07;;;1.57;;
20814;SDS011;10568;48.176;16.316;2024-03-17T11:42:24;2.53;;;1.47;;
20814;SDS011;10568;48.176;16.316;2024-03-17T11:44:56;2.03;;;1.40;;
20814;SDS011;10568;48.176;16.316;2024-03-17T11:47:32;1.67;;;1.40;;
20814;SDS011;10568;48.176;16.316;2024-03-17T11:50:01;2.13;;;1.47;;
20814;SDS011;10568;48.176;16.316;2024-03-17T11:52:30;2.13;;;1.20;;
20814;SDS011;10568;48.176;16.316;2024-03-17T11:54:56;3.07;;;1.53;;
20814;SDS011;10568;48.176;16.316;2024-03-17T11:57:23;2.87;;;1.33;;
20814;SDS011;10568;48.176;16.316;2024-03-17T11:59:51;2.10;;;1.40;;
20814;SDS011;10568;48.176;16.316;2024-03-17T12:02:29;3.77;;;1.50;;
20814;SDS011;10568;48.176;16.316;2024-03-17T12:05:00;4.70;;;1.67;;
20814;SDS011;10568;48.176;16.316;2024-03-17T12:07:27;4.90;;;1.57;;
20814;SDS011;10568;48.176;16.316;2024-03-17T12:09:56;1.73;;;1.23;;
20814;SDS011;10568;48.176;16.316;2024-03-17T12:12:24;2.57;;;1.63;;
20814;SDS011;10568;48.176;16.316;2024-03-17T12:15:00;2.13;;;1.43;;
20814;SDS011;10568;48.176;16.316;2024-03-17T12:17:26;3.13;;;1.40;;
20814;SDS011;10568;48.176;16.316;2024-03-17T12:19:53;1.53;;;1.33;;
20814;SDS011;10568;48.176;16.316;2024-03-17T12:22:21;1.47;;;1.17;;
20814;SDS011;10568;48.176;16.316;2024-03-17T12:24:51;2.77;;;1.30;;
20814;SDS011;10568;48.176;16.316;2024-03-17T12:27:23;2.03;;;1.43;;
20814;SDS011;10568;48.176;16.316;2024-03-17T12:29:51;2.80;;;1.60;;
20814;SDS011;10568;48.176;16.316;2024-03-17T12:32:18;1.40;;;1.30;;
20814;SDS011;10568;48.176;16.316;2024-03-17T12:34:48;1.83;;;1.27;;
20814;SDS011;10568;48.176;16.316;2024-03-17T12:37:19;2.65;;;1.60;;
20814;SDS011;10568;48.176;16.316;2024-03-17T12:39:47;1.55;;;1.30;;
20814;SDS011;10568;48.176;16.316;2024-03-17T12:42:15;2.35;;;1.70;;
20814;SDS011;10568;48.176;16.316;2024-03-17T12:47:59;1.83;;;1.30;;
20814;SDS011;10568;48.176;16.316;2024-03-17T12:50:25;2.60;;;1.13;;
20814;SDS011;10568;48.176;16.316;2024-03-17T12:52:53;2.75;;;1.55;;
20814;SDS011;10568;48.176;16.316;2024-03-17T12:55:21;2.45;;;1.50;;
20814;SDS011;10568;48.176;16.316;2024-03-17T12:58:06;2.05;;;1.23;;
20814;SDS011;10568;48.176;16.316;2024-03-17T13:01:05;2.15;;;1.27;;
20814;SDS011;10568;48.176;16.316;2024-03-17T13:03:35;1.67;;;1.23;;
20814;SDS011;10568;48.176;16.316;2024-03-17T13:06:03;2.30;;;1.45;;
20814;SDS011;10568;48.176;16.316;2024-03-17T13:08:33;2.22;;;1.48;;
20814;SDS011;10568;48.176;16.316;2024-03-17T13:11:00;3.30;;;1.23;;
20814;SDS011;10568;48.176;16.316;2024-03-17T13:13:29;1.75;;;1.30;;
20814;SDS011;10568;48.176;16.316;2024-03-17T13:15:56;3.33;;;1.48;;
20814;SDS011;10568;48.176;16.316;2024-03-17T13:18:22;1.88;;;1.20;;
20814;SDS011;10568;48.176;16.316;2024-03-17T13:20:48;2.75;;;1.58;;
20814;SDS011;10568;48.176;16.316;2024-03-17T13:23:19;2.53;;;1.10;;
20814;SDS011;10568;48.176;16.316;2024-03-17T13:25:49;1.85;;;1.35;;
20814;SDS011;10568;48.176;16.316;2024-03-17T13:28:15;1.75;;;1.23;;
20814;SDS011;10568;48.176;16.316;2024-03-17T13:30:42;4.00;;;1.35;;
20814;SDS011;10568;48.176;16.316;2024-03-17T13:33:09;1.75;;;1.30;;
20814;SDS011;10568;48.176;16.316;2024-03-17T13:35:37;1.83;;;1.45;;
20814;SDS011;10568;48.176;16.316;2024-03-17T13:38:05;3.50;;;1.27;;
20814;SDS011;10568;48.176;16.316;2024-03-17T13:40:36;2.22;;;1.40;;
20814;SDS011;10568;48.176;16.316;2024-03-17T13:43:04;1.77;;;1.40;;
20814;SDS011;10568;48.176;16.316;2024-03-17T13:45:31;2.53;;;1.60;;
20814;SDS011;10568;48.176;16.316;2024-03-17T13:48:08;6.07;;;1.77;;
20814;SDS011;10568;48.176;16.316;2024-03-17T13:50:36;2.77;;;1.40;;
20814;SDS011;10568;48.176;16.316;2024-03-17T13:53:04;3.03;;;1.63;;
20814;SDS011;10568;48.176;16.316;2024-03-17T13:55:30;1.87;;;1.30;;
20814;SDS011;10568;48.176;16.316;2024-03-17T13:57:57;2.90;;;1.50;;
20814;SDS011;10568;48.176;16.316;2024-03-17T14:00:28;2.37;;;1.37;;
20814;SDS011;10568;48.176;16.316;2024-03-17T14:02:56;2.63;;;1.70;;
20814;SDS011;10568;48.176;16.316;2024-03-17T14:05:23;2.10;;;1.40;;
20814;SDS011;10568;48.176;16.316;2024-03-17T14:07:54;2.70;;;1.40;;
20814;SDS011;10568;48.176;16.316;2024-03-17T14:10:21;3.53;;;1.70;;
20814;SDS011;10568;48.176;16.316;2024-03-17T14:12:48;1.40;;;1.27;;
20814;SDS011;10568;48.176;16.316;2024-03-17T14:15:16;3.33;;;1.60;;
20814;SDS011;10568;48.176;16.316;2024-03-17T14:17:43;1.97;;;1.20;;
20814;SDS011;10568;48.176;16.316;2024-03-17T14:20:11;2.00;;;1.30;;
20814;SDS011;10568;48.176;16.316;2024-03-17T14:22:40;2.10;;;1.40;;
20814;SDS011;10568;48.176;16.316;2024-03-17T14:25:07;2.97;;;1.40;;
20814;SDS011;10568;48.176;16.316;2024-03-17T14:27:42;1.80;;;1.30;;
20814;SDS011;10568;48.176;16.316;2024-03-17T14:30:09;2.27;;;1.30;;
20814;SDS011;10568;48.176;16.316;2024-03-17T14:32:39;1.47;;;1.20;;
20814;SDS011;10568;48.176;16.316;2024-03-17T14:35:05;4.37;;;1.20;;
20814;SDS011;10568;48.176;16.316;2024-03-17T14:37:36;1.70;;;1.50;;
20814;SDS011;10568;48.176;16.316;2024-03-17T14:40:02;2.37;;;1.30;;
20814;SDS011;10568;48.176;16.316;2024-03-17T14:42:32;3.93;;;1.60;;
20814;SDS011;10568;48.176;16.316;2024-03-17T14:44:58;1.83;;;1.20;;
20814;SDS011;10568;48.176;16.316;2024-03-17T14:47:25;2.20;;;1.40;;
20814;SDS011;10568;48.176;16.316;2024-03-17T14:49:52;4.73;;;1.30;;
20814;SDS011;10568;48.176;16.316;2024-03-17T14:52:18;2.00;;;1.30;;
20814;SDS011;10568;48.176;16.316;2024-03-17T14:54:44;2.70;;;1.27;;
20814;SDS011;10568;48.176;16.316;2024-03-17T14:57:10;1.50;;;1.10;;
20814;SDS011;10568;48.176;16.316;2024-03-17T14:59:36;2.13;;;1.30;;
20814;SDS011;10568;48.176;16.316;2024-03-17T15:02:03;1.30;;;1.17;;
20814;SDS011;10568;48.176;16.316;2024-03-17T15:04:31;2.13;;;1.17;;
20814;SDS011;10568;48.176;16.316;2024-03-17T15:06:57;2.47;;;1.10;;
20814;SDS011;10568;48.176;16.316;2024-03-17T15:09:23;2.40;;;1.30;;
20814;SDS011;10568;48.176;16.316;2024-03-17T15:11:50;1.30;;;1.20;;
20814;SDS011;10568;48.176;16.316;2024-03-17T15:14:16;3.10;;;1.60;;
20814;SDS011;10568;48.176;16.316;2024-03-17T15:16:43;2.77;;;1.20;;
20814;SDS011;10568;48.176;16.316;2024-03-17T15:19:10;2.93;;;1.40;;
20814;SDS011;10568;48.176;16.316;2024-03-17T15:21:37;3.07;;;1.00;;
20814;SDS011;10568;48.176;16.316;2024-03-17T15:24:03;1.63;;;1.20;;